createdAt,value
2022-12-25T00:05:00.223Z,8.75
2022-12-25T00:15:06.886Z,8.87
2022-12-25T00:25:11.419Z,8.92
2022-12-25T00:35:18.857Z,8.98
2022-12-25T00:45:22.709Z,8.98
2022-12-25T00:55:27.832Z,9.09
2022-12-25T01:05:31.718Z,9.04
2022-12-25T01:15:38.046Z,9.05
2022-12-25T01:25:42.120Z,8.92
2022-12-25T01:35:47.199Z,8.98
2022-12-25T01:45:52.652Z,9.00
2022-12-25T01:56:02.089Z,9.18
2022-12-25T02:06:06.761Z,8.93
2022-12-25T02:16:17.389Z,9.04
2022-12-25T02:26:41.573Z,8.98
2022-12-25T02:36:51.586Z,9.07
2022-12-25T02:47:13.248Z,9.07
2022-12-25T02:57:40.501Z,9.13
2022-12-25T03:07:45.990Z,9.14
2022-12-25T03:17:50.960Z,9.13
2022-12-25T03:27:57.326Z,9.27
2022-12-25T03:38:37.964Z,9.28
2022-12-25T03:49:04.973Z,9.29
2022-12-25T03:59:35.912Z,9.23
2022-12-25T04:10:02.324Z,9.23
2022-12-25T04:20:27.061Z,9.20
2022-12-25T04:30:48.457Z,9.25
2022-12-25T04:40:53.493Z,9.11
2022-12-25T04:50:57.275Z,9.16
2022-12-25T05:01:03.700Z,9.26
2022-12-25T05:11:10.221Z,9.30
2022-12-25T05:21:15.584Z,9.18
2022-12-25T05:31:19.817Z,9.22
2022-12-25T05:41:27.891Z,9.22
2022-12-25T05:51:35.975Z,9.21
2022-12-25T06:01:40.959Z,9.13
2022-12-25T06:11:44.844Z,9.15
2022-12-25T06:21:53.973Z,9.25
2022-12-25T06:31:59.005Z,9.31
2022-12-25T06:42:04.279Z,9.34
2022-12-25T06:52:08.392Z,9.37
2022-12-25T07:02:19.953Z,9.37
2022-12-25T07:12:24.909Z,9.40
2022-12-25T07:22:31.117Z,9.31
2022-12-25T07:32:34.823Z,9.36
2022-12-25T07:42:39.790Z,9.32
2022-12-25T07:52:44.005Z,9.41
2022-12-25T08:02:50.687Z,9.53
2022-12-25T08:12:57.142Z,9.54
2022-12-25T08:23:02.221Z,9.73
2022-12-25T08:33:06.434Z,10.16
2022-12-25T08:43:11.617Z,10.19
2022-12-25T08:53:15.597Z,10.17
2022-12-25T09:03:21.207Z,10.13
2022-12-25T09:13:25.157Z,10.20
2022-12-25T09:23:30.823Z,10.43
2022-12-25T09:33:36.618Z,10.42
2022-12-25T09:43:48.115Z,10.45
2022-12-25T09:54:00.460Z,10.43
2022-12-25T10:04:34.796Z,10.50
2022-12-25T10:15:00.252Z,10.55
2022-12-25T10:25:07.890Z,11.02
2022-12-25T10:35:13.955Z,11.36
2022-12-25T10:45:19.180Z,11.56
2022-12-25T10:55:28.446Z,11.60
2022-12-25T11:05:36.835Z,11.74
2022-12-25T11:15:44.126Z,11.94
2022-12-25T11:25:58.058Z,12.07
2022-12-25T11:36:09.360Z,12.20
2022-12-25T11:46:21.873Z,12.06
2022-12-25T11:56:28.616Z,12.40
2022-12-25T12:06:46.189Z,12.53
2022-12-25T12:16:50.441Z,12.66
2022-12-25T12:27:07.498Z,12.61
2022-12-25T12:37:24.602Z,12.44
2022-12-25T12:47:37.959Z,12.31
2022-12-25T12:57:42.998Z,12.44
2022-12-25T13:07:58.751Z,12.37
2022-12-25T13:18:07.097Z,12.32
2022-12-25T13:28:16.394Z,12.20
2022-12-25T13:38:29.131Z,12.10
2022-12-25T13:48:34.499Z,12.10
2022-12-25T13:58:39.581Z,11.99
2022-12-25T14:08:45.263Z,12.02
2022-12-25T14:18:57.528Z,11.69
2022-12-25T14:29:16.819Z,11.49
2022-12-25T14:39:31.769Z,11.36
2022-12-25T14:49:38.600Z,11.18
2022-12-25T14:59:42.278Z,11.05
2022-12-25T15:09:47.385Z,10.94
2022-12-25T15:19:51.258Z,10.84
2022-12-25T15:30:11.730Z,10.78
2022-12-25T15:40:17.260Z,10.57
2022-12-25T15:50:22.807Z,10.33
2022-12-25T16:00:26.986Z,10.28
2022-12-25T16:10:38.204Z,10.32
2022-12-25T16:20:42.605Z,10.18
2022-12-25T16:30:47.775Z,10.21
2022-12-25T16:40:57.844Z,9.99
2022-12-25T16:51:03.007Z,9.99
2022-12-25T17:01:08.401Z,9.96
2022-12-25T17:11:14.737Z,9.78
2022-12-25T17:21:18.411Z,9.56
2022-12-25T17:31:24.515Z,9.54
2022-12-25T17:41:29.103Z,9.55
2022-12-25T17:51:35.338Z,9.62
2022-12-25T18:01:40.537Z,9.58
2022-12-25T18:11:45.923Z,9.58
2022-12-25T18:21:51.087Z,9.57
2022-12-25T18:31:56.167Z,9.59
2022-12-25T18:42:17.565Z,9.56
2022-12-25T18:52:49.020Z,9.62
2022-12-25T19:02:46.747Z,9.66
2022-12-25T19:12:51.797Z,9.48
2022-12-25T19:22:55.533Z,9.43
2022-12-25T19:33:00.585Z,9.54
2022-12-25T19:43:04.373Z,9.46
2022-12-25T19:53:09.395Z,9.39
2022-12-25T20:03:13.233Z,9.40
2022-12-25T20:13:19.016Z,9.49
2022-12-25T20:23:22.895Z,9.55
2022-12-25T20:33:27.925Z,9.66
2022-12-25T20:43:32.585Z,9.63
2022-12-25T20:53:38.324Z,9.90
2022-12-25T21:03:42.789Z,10.49
2022-12-25T21:13:48.819Z,11.01
2022-12-25T21:23:52.789Z,11.25
2022-12-25T21:33:59.309Z,11.57
2022-12-25T21:44:03.093Z,11.78
2022-12-25T21:54:08.883Z,11.60
2022-12-25T22:04:14.983Z,11.90
2022-12-25T22:14:52.397Z,11.93
2022-12-25T22:25:00.133Z,12.19
2022-12-25T22:35:06.445Z,11.98
2022-12-25T22:45:12.450Z,12.08
2022-12-25T22:55:20.453Z,12.10
2022-12-25T23:05:24.731Z,12.22
2022-12-25T23:15:30.021Z,12.14
2022-12-25T23:25:53.671Z,12.18
2022-12-25T23:35:58.801Z,12.22
2022-12-25T23:46:02.640Z,12.28
2022-12-25T23:56:10.365Z,12.47
